createdAt,value
2023-02-12T00:01:26.347Z,96983.38
2023-02-12T00:03:55.261Z,96982.00
2023-02-12T00:06:24.249Z,96986.39
2023-02-12T00:08:54.231Z,96989.40
2023-02-12T00:11:25.819Z,96981.23
2023-02-12T00:13:55.292Z,96979.69
2023-02-12T00:16:29.028Z,96974.05
2023-02-12T00:18:59.043Z,96967.09
2023-02-12T00:21:29.021Z,96969.47
2023-02-12T00:23:57.869Z,96964.39
2023-02-12T00:26:26.093Z,96959.63
2023-02-12T00:28:55.093Z,96960.47
2023-02-12T00:31:26.980Z,96955.02
2023-02-12T00:33:59.441Z,96953.15
2023-02-12T00:36:29.544Z,96952.30
2023-02-12T00:38:58.305Z,96955.19
2023-02-12T00:41:27.364Z,96955.36
2023-02-12T00:43:55.973Z,96956.89
2023-02-12T00:46:24.203Z,96952.67
2023-02-12T00:48:52.547Z,96953.89
2023-02-12T00:51:21.973Z,96959.16
2023-02-12T00:53:50.085Z,96958.00
2023-02-12T00:56:18.143Z,96950.72
2023-02-12T00:58:48.958Z,96948.35
2023-02-12T01:01:18.012Z,96948.70
2023-02-12T01:03:46.098Z,96943.98
2023-02-12T01:06:14.222Z,96950.63
2023-02-12T01:08:42.252Z,96944.87
2023-02-12T01:11:13.110Z,96944.70
2023-02-12T01:13:41.410Z,96946.42
2023-02-12T01:16:16.297Z,96949.16
2023-02-12T01:18:45.884Z,96948.31
2023-02-12T01:21:19.485Z,96946.27
2023-02-12T01:23:48.605Z,96948.48
2023-02-12T01:26:18.127Z,96949.67
2023-02-12T01:28:51.208Z,96953.08
2023-02-12T01:31:23.160Z,96952.09
2023-02-12T01:33:54.410Z,96947.19
2023-02-12T01:36:26.332Z,96949.40
2023-02-12T01:38:56.126Z,96953.98
2023-02-12T01:41:29.675Z,96957.89
2023-02-12T01:44:09.944Z,96964.34
2023-02-12T01:46:38.678Z,96968.58
2023-02-12T01:49:12.681Z,96966.71
2023-02-12T01:51:43.510Z,96958.58
2023-02-12T01:54:15.203Z,96954.51
2023-02-12T01:56:43.820Z,96947.89
2023-02-12T01:59:13.110Z,96950.45
2023-02-12T02:01:41.357Z,96952.48
2023-02-12T02:04:14.138Z,96955.54
2023-02-12T02:07:05.543Z,96960.63
2023-02-12T02:09:36.681Z,96954.02
2023-02-12T02:12:24.739Z,96957.06
2023-02-12T02:14:57.104Z,96958.77
2023-02-12T02:17:37.424Z,96959.61
2023-02-12T02:20:20.584Z,96963.38
2023-02-12T02:23:10.078Z,96970.50
2023-02-12T02:26:05.887Z,96969.65
2023-02-12T02:28:44.643Z,96971.70
2023-02-12T02:31:17.912Z,96975.59
2023-02-12T02:33:59.657Z,96976.27
2023-02-12T02:36:32.445Z,96979.33
2023-02-12T02:39:06.624Z,96983.22
2023-02-12T02:41:59.601Z,96984.75
2023-02-12T02:44:37.382Z,96979.31
2023-02-12T02:47:10.214Z,96979.66
2023-02-12T02:49:56.359Z,96978.48
2023-02-12T02:52:37.453Z,96978.11
2023-02-12T02:55:12.460Z,96980.48
2023-02-12T02:58:12.210Z,96985.41
2023-02-12T03:04:46.563Z,96978.45
2023-02-12T03:07:25.149Z,96977.25
2023-02-12T03:09:59.358Z,96979.46
2023-02-12T03:12:44.982Z,96981.31
2023-02-12T03:15:27.106Z,96982.84
2023-02-12T03:17:58.823Z,96986.06
2023-02-12T03:20:33.934Z,96984.88
2023-02-12T03:23:14.532Z,96986.41
2023-02-12T03:25:47.300Z,96987.77
2023-02-12T03:28:20.820Z,96989.80
2023-02-12T03:30:59.958Z,96989.80
2023-02-12T03:33:34.034Z,96994.88
2023-02-12T03:36:10.989Z,96999.46
2023-02-12T03:38:46.255Z,97001.15
2023-02-12T03:41:31.508Z,97006.23
2023-02-12T03:44:21.318Z,97010.82
2023-02-12T03:47:09.472Z,97016.93
2023-02-12T03:50:00.858Z,97018.45
2023-02-12T03:52:30.491Z,97019.80
2023-02-12T03:54:59.074Z,97018.61
2023-02-12T03:57:34.235Z,97022.85
2023-02-12T04:00:08.929Z,97022.68
2023-02-12T04:02:43.495Z,97020.64
2023-02-12T04:05:24.141Z,97024.20
2023-02-12T04:07:54.146Z,97027.93
2023-02-12T04:10:45.699Z,97032.34
2023-02-12T04:13:26.448Z,97035.22
2023-02-12T04:16:12.505Z,97034.54
2023-02-12T04:18:52.115Z,97036.23
2023-02-12T04:21:48.033Z,97037.42
2023-02-12T04:24:24.562Z,97035.55
2023-02-12T04:27:03.051Z,97037.09
2023-02-12T04:29:56.206Z,97036.58
2023-02-12T04:32:38.300Z,97027.42
2023-02-12T04:35:27.995Z,97017.75
2023-02-12T04:38:18.647Z,97014.70
2023-02-12T04:40:48.188Z,97021.30
2023-02-12T04:43:30.136Z,97025.72
2023-02-12T04:45:58.420Z,97028.60
2023-02-12T04:48:26.752Z,97042.68
2023-02-12T04:50:54.708Z,97051.13
2023-02-12T04:53:22.791Z,97054.34
2023-02-12T04:55:50.761Z,97063.16
2023-02-12T04:58:18.858Z,97065.70
2023-02-12T05:00:46.894Z,97065.34
2023-02-12T05:03:14.824Z,97061.40
2023-02-12T05:05:42.839Z,97065.27
2023-02-12T05:08:10.877Z,97061.52
2023-02-12T05:10:38.921Z,97063.21
2023-02-12T05:13:08.020Z,97067.95
2023-02-12T05:15:38.474Z,97068.96
2023-02-12T05:18:06.578Z,97072.88
2023-02-12T05:20:34.438Z,97078.30
2023-02-12T05:23:02.472Z,97077.94
2023-02-12T05:25:32.707Z,97084.89
2023-02-12T05:28:00.706Z,97087.95
2023-02-12T05:30:28.688Z,97089.48
2023-02-12T05:33:02.621Z,97095.41
2023-02-12T05:35:30.526Z,97104.58
2023-02-12T05:37:58.496Z,97106.27
2023-02-12T05:40:26.637Z,97108.45
2023-02-12T05:42:54.645Z,97109.79
2023-02-12T05:45:27.874Z,97112.66
2023-02-12T05:47:56.559Z,97121.84
2023-02-12T05:50:24.882Z,97131.02
2023-02-12T05:53:01.447Z,97135.45
2023-02-12T05:55:29.411Z,97136.13
2023-02-12T05:57:57.336Z,97142.92
2023-02-12T06:00:25.488Z,97151.58
2023-02-12T06:02:53.654Z,97150.37
2023-02-12T06:05:21.678Z,97155.10
2023-02-12T06:07:49.693Z,97162.92
2023-02-12T06:10:17.853Z,97161.91
2023-02-12T06:12:46.293Z,97163.29
2023-02-12T06:15:14.267Z,97163.13
2023-02-12T06:17:42.167Z,97157.17
2023-02-12T06:20:10.310Z,97158.89
2023-02-12T06:22:38.486Z,97155.33
2023-02-12T06:25:06.963Z,97159.41
2023-02-12T06:27:34.935Z,97159.92
2023-02-12T06:30:03.211Z,97156.52
2023-02-12T06:32:31.259Z,97166.72
2023-02-12T06:34:59.282Z,97173.00
2023-02-12T06:37:27.340Z,97177.59
2023-02-12T06:39:55.659Z,97186.42
2023-02-12T06:42:23.532Z,97189.30
2023-02-12T06:44:53.041Z,97185.23
2023-02-12T06:47:21.686Z,97192.88
2023-02-12T06:49:49.711Z,97192.88
2023-02-12T06:52:17.703Z,97194.06
2023-02-12T06:54:45.563Z,97202.38
2023-02-12T06:57:13.623Z,97196.94
2023-02-12T06:59:41.566Z,97198.96
2023-02-12T07:02:11.458Z,97201.67
2023-02-12T07:04:39.502Z,97204.56
2023-02-12T07:07:07.644Z,97206.77
2023-02-12T07:09:35.815Z,97203.66
2023-02-12T07:12:04.541Z,97206.52
2023-02-12T07:14:34.205Z,97205.66
2023-02-12T07:17:04.021Z,97207.18
2023-02-12T07:19:32.473Z,97212.59
2023-02-12T07:22:00.833Z,97215.42
2023-02-12T07:24:28.843Z,97220.49
2023-02-12T07:26:56.880Z,97228.29
2023-02-12T07:29:25.166Z,97233.37
2023-02-12T07:31:53.415Z,97235.23
2023-02-12T07:34:21.404Z,97237.73
2023-02-12T07:36:49.475Z,97236.02
2023-02-12T07:39:17.461Z,97238.56
2023-02-12T07:41:45.511Z,97242.44
2023-02-12T07:44:13.791Z,97244.30
2023-02-12T07:46:49.427Z,97250.05
2023-02-12T07:49:20.304Z,97243.38
2023-02-12T07:51:51.136Z,97242.83
2023-02-12T07:54:19.153Z,97248.26
2023-02-12T07:56:47.463Z,97255.05
2023-02-12T07:59:18.399Z,97263.39
2023-02-12T08:01:51.683Z,97265.93
2023-02-12T08:04:23.051Z,97269.15
2023-02-12T08:06:54.116Z,97270.48
2023-02-12T08:09:24.783Z,97269.27
2023-02-12T08:11:53.383Z,97271.13
2023-02-12T08:14:22.270Z,97277.73
2023-02-12T08:16:51.034Z,97278.89
2023-02-12T08:19:24.756Z,97276.77
2023-02-12T08:21:54.813Z,97271.77
2023-02-12T08:24:23.551Z,97272.23
2023-02-12T08:26:52.008Z,97268.75
2023-02-12T08:29:22.843Z,97275.83
2023-02-12T08:31:56.378Z,97275.23
2023-02-12T08:34:31.782Z,97275.84
2023-02-12T08:37:00.387Z,97281.16
2023-02-12T08:39:30.303Z,97283.79
2023-02-12T08:41:59.976Z,97287.45
2023-02-12T08:44:28.538Z,97293.14
2023-02-12T08:46:56.713Z,97292.69
2023-02-12T08:49:29.481Z,97296.84
2023-02-12T08:51:59.878Z,97297.38
2023-02-12T08:54:29.791Z,97303.36
2023-02-12T08:57:00.849Z,97307.47
2023-02-12T08:59:29.697Z,97307.30
2023-02-12T09:01:57.623Z,97304.77
2023-02-12T09:04:28.267Z,97302.27
2023-02-12T09:06:56.868Z,97304.61
2023-02-12T09:09:24.841Z,97305.77
2023-02-12T09:11:53.012Z,97313.10
2023-02-12T09:14:24.270Z,97316.67
2023-02-12T09:16:57.283Z,97314.77
2023-02-12T09:19:25.633Z,97319.88
2023-02-12T09:21:56.652Z,97332.55
2023-02-12T09:24:27.965Z,97341.21
2023-02-12T09:26:56.708Z,97341.41
2023-02-12T09:29:24.720Z,97347.39
2023-02-12T09:31:52.993Z,97352.36
2023-02-12T09:34:21.358Z,97352.05
2023-02-12T09:36:49.653Z,97355.27
2023-02-12T09:39:17.677Z,97360.11
2023-02-12T09:41:45.670Z,97353.30
2023-02-12T09:44:35.025Z,97350.36
2023-02-12T09:47:17.420Z,97353.09
2023-02-12T09:50:14.927Z,97350.89
2023-02-12T09:52:43.231Z,97348.61
2023-02-12T09:55:19.586Z,97345.55
2023-02-12T09:57:47.816Z,97343.70
2023-02-12T10:00:28.065Z,97338.64
2023-02-12T10:02:56.261Z,97343.73
2023-02-12T10:05:29.352Z,97344.42
2023-02-12T10:08:22.156Z,97344.85
2023-02-12T10:10:52.190Z,97350.38
2023-02-12T10:13:38.693Z,97354.06
2023-02-12T10:16:26.948Z,97353.39
2023-02-12T10:19:06.843Z,97354.09
2023-02-12T10:21:59.661Z,97346.41
2023-02-12T10:24:57.820Z,97344.77
2023-02-12T10:27:43.596Z,97343.14
2023-02-12T10:30:31.380Z,97336.75
2023-02-12T10:33:06.964Z,97341.34
2023-02-12T10:35:35.647Z,97350.18
2023-02-12T10:38:29.591Z,97357.48
2023-02-12T10:41:01.779Z,97351.92
2023-02-12T10:43:30.664Z,97352.74
2023-02-12T10:45:58.899Z,97362.91
2023-02-12T10:48:38.886Z,97358.02
2023-02-12T10:51:09.657Z,97345.29
2023-02-12T10:53:43.537Z,97350.61
2023-02-12T10:56:26.071Z,97351.23
2023-02-12T10:58:59.301Z,97360.02
2023-02-12T11:01:38.452Z,97359.00
2023-02-12T11:04:27.936Z,97359.25
2023-02-12T11:07:07.516Z,97357.55
2023-02-12T11:09:46.293Z,97355.41
2023-02-12T11:12:40.982Z,97360.61
2023-02-12T11:15:26.532Z,97361.30
2023-02-12T11:18:05.127Z,97361.77
2023-02-12T11:20:42.286Z,97353.45
2023-02-12T11:23:32.652Z,97350.32
2023-02-12T11:26:07.337Z,97359.88
2023-02-12T11:28:37.125Z,97349.35
2023-02-12T11:31:33.310Z,97348.16
2023-02-12T11:34:04.527Z,97353.05
2023-02-12T11:36:46.120Z,97352.60
2023-02-12T11:39:39.073Z,97360.04
2023-02-12T11:42:30.944Z,97359.30
2023-02-12T11:45:00.262Z,97357.61
2023-02-12T11:47:35.372Z,97364.62
2023-02-12T11:50:09.233Z,97361.77
2023-02-12T11:52:40.848Z,97355.96
2023-02-12T11:55:22.558Z,97357.01
2023-02-12T11:58:03.189Z,97360.65
2023-02-12T12:00:45.620Z,97369.49
2023-02-12T12:03:21.370Z,97364.89
2023-02-12T12:05:52.820Z,97361.12
2023-02-12T12:08:27.897Z,97360.38
2023-02-12T12:11:18.962Z,97363.15
2023-02-12T12:13:57.659Z,97363.87
2023-02-12T12:16:57.028Z,97370.92
2023-02-12T12:19:51.654Z,97371.86
2023-02-12T12:22:41.608Z,97378.48
2023-02-12T12:25:41.482Z,97377.17
2023-02-12T12:28:18.880Z,97372.11
2023-02-12T12:31:08.865Z,97374.63
2023-02-12T12:33:51.679Z,97378.48
2023-02-12T12:36:51.875Z,97376.71
2023-02-12T12:39:45.796Z,97374.56
2023-02-12T12:42:31.951Z,97379.36
2023-02-12T12:45:17.429Z,97387.02
2023-02-12T12:48:22.654Z,97390.84
2023-02-12T12:51:06.007Z,97387.05
2023-02-12T12:53:52.758Z,97389.25
2023-02-12T12:56:27.057Z,97385.29
2023-02-12T12:59:13.806Z,97388.95
2023-02-12T13:01:57.481Z,97388.65
2023-02-12T13:04:41.819Z,97391.72
2023-02-12T13:07:29.013Z,97394.77
2023-02-12T13:10:08.354Z,97401.56
2023-02-12T13:12:49.538Z,97405.92
2023-02-12T13:15:28.447Z,97404.67
2023-02-12T13:18:06.888Z,97411.67
2023-02-12T13:21:03.401Z,97414.34
2023-02-12T13:23:54.641Z,97417.63
2023-02-12T13:26:40.826Z,97421.43
2023-02-12T13:29:34.901Z,97421.66
2023-02-12T13:32:22.501Z,97421.31
2023-02-12T13:34:53.139Z,97425.42
2023-02-12T13:37:35.443Z,97427.04
2023-02-12T13:40:14.179Z,97424.60
2023-02-12T13:42:43.179Z,97430.48
2023-02-12T13:45:20.413Z,97441.38
2023-02-12T13:48:06.415Z,97439.35
2023-02-12T13:51:01.420Z,97440.80
2023-02-12T13:53:48.208Z,97437.20
2023-02-12T13:56:42.357Z,97445.87
2023-02-12T13:59:51.068Z,97450.73
2023-02-12T14:02:38.971Z,97450.23
2023-02-12T14:05:36.923Z,97447.83
2023-02-12T14:08:06.598Z,97447.27
2023-02-12T14:10:41.257Z,97444.69
2023-02-12T14:13:34.210Z,97447.03
2023-02-12T14:16:39.556Z,97442.62
2023-02-12T14:19:41.694Z,97442.30
2023-02-12T14:22:29.822Z,97444.40
2023-02-12T14:24:59.295Z,97448.09
2023-02-12T14:27:33.297Z,97446.66
2023-02-12T14:30:04.344Z,97444.44
2023-02-12T14:32:44.909Z,97448.55
2023-02-12T14:35:32.137Z,97452.27
2023-02-12T14:38:01.142Z,97450.26
2023-02-12T14:40:47.020Z,97451.72
2023-02-12T14:43:57.146Z,97456.79
2023-02-12T14:46:25.211Z,97459.25
2023-02-12T14:49:05.980Z,97460.52
2023-02-12T14:51:53.503Z,97472.94
2023-02-12T14:54:30.545Z,97470.47
2023-02-12T14:57:02.959Z,97470.23
2023-02-12T14:59:39.507Z,97467.59
2023-02-12T15:02:09.430Z,97466.80
2023-02-12T15:04:41.372Z,97467.36
2023-02-12T15:07:17.215Z,97469.09
2023-02-12T15:09:52.374Z,97468.78
2023-02-12T15:12:38.346Z,97473.27
2023-02-12T15:15:34.790Z,97469.89
2023-02-12T15:18:20.634Z,97467.38
2023-02-12T15:20:55.237Z,97473.02
2023-02-12T15:24:08.023Z,97476.57
2023-02-12T15:26:47.386Z,97477.41
2023-02-12T15:29:55.849Z,97482.92
2023-02-12T15:32:27.113Z,97494.23
2023-02-12T15:34:56.186Z,97499.86
2023-02-12T15:37:30.784Z,97506.17
2023-02-12T15:40:01.639Z,97509.23
2023-02-12T15:42:33.831Z,97510.26
2023-02-12T15:45:25.937Z,97513.66
2023-02-12T15:48:00.969Z,97517.73
2023-02-12T15:50:31.277Z,97524.34
2023-02-12T15:52:59.669Z,97527.03
2023-02-12T15:55:33.304Z,97532.17
2023-02-12T15:58:03.382Z,97533.17
2023-02-12T16:00:43.318Z,97539.98
2023-02-12T16:03:28.969Z,97545.54
2023-02-12T16:06:03.972Z,97552.11
2023-02-12T16:08:34.139Z,97559.02
2023-02-12T16:11:13.718Z,97564.22
2023-02-12T16:13:51.826Z,97568.92
2023-02-12T16:16:39.935Z,97576.64
2023-02-12T16:19:22.531Z,97578.05
2023-02-12T16:21:56.565Z,97574.34
2023-02-12T16:24:33.561Z,97582.23
2023-02-12T16:27:09.588Z,97590.45
2023-02-12T16:29:45.945Z,97594.60
2023-02-12T16:32:36.256Z,97594.46
2023-02-12T16:35:33.866Z,97596.20
2023-02-12T16:38:03.899Z,97599.98
2023-02-12T16:40:35.282Z,97601.03
2023-02-12T16:43:23.154Z,97605.83
2023-02-12T16:45:59.804Z,97606.36
2023-02-12T16:48:28.169Z,97607.07
2023-02-12T16:50:59.714Z,97607.63
2023-02-12T16:53:30.700Z,97606.48
2023-02-12T16:56:00.599Z,97615.05
2023-02-12T16:58:28.732Z,97613.87
2023-02-12T17:00:58.927Z,97616.45
2023-02-12T17:03:27.112Z,97621.08
2023-02-12T17:05:57.123Z,97622.48
2023-02-12T17:08:25.636Z,97622.35
2023-02-12T17:10:53.724Z,97621.35
2023-02-12T17:13:21.848Z,97624.10
2023-02-12T17:15:59.743Z,97631.96
2023-02-12T17:18:28.695Z,97633.16
2023-02-12T17:21:17.161Z,97636.75
2023-02-12T17:23:45.228Z,97637.80
2023-02-12T17:26:13.345Z,97638.85
2023-02-12T17:28:41.555Z,97646.88
2023-02-12T17:31:10.132Z,97647.23
2023-02-12T17:33:39.513Z,97648.09
2023-02-12T17:36:08.353Z,97650.13
2023-02-12T17:38:36.779Z,97655.77
2023-02-12T17:41:11.670Z,97654.91
2023-02-12T17:43:39.748Z,97658.15
2023-02-12T17:46:13.283Z,97660.72
2023-02-12T17:48:41.353Z,97662.42
2023-02-12T17:51:14.605Z,97660.55
2023-02-12T17:53:43.036Z,97661.23
2023-02-12T17:56:17.776Z,97664.13
2023-02-12T17:58:46.915Z,97663.10
2023-02-12T18:01:18.731Z,97662.60
2023-02-12T18:03:47.650Z,97663.62
2023-02-12T18:06:26.536Z,97664.81
2023-02-12T18:08:56.622Z,97668.56
2023-02-12T18:11:25.381Z,97668.73
2023-02-12T18:13:55.856Z,97671.12
2023-02-12T18:16:26.336Z,97672.31
2023-02-12T18:18:55.087Z,97675.38
2023-02-12T18:21:23.813Z,97676.58
2023-02-12T18:23:54.075Z,97683.05
2023-02-12T18:26:22.962Z,97684.61
2023-02-12T18:28:51.258Z,97686.30
2023-02-12T18:31:20.613Z,97681.73
2023-02-12T18:33:49.074Z,97682.75
2023-02-12T18:36:19.748Z,97677.64
2023-02-12T18:38:49.481Z,97677.98
2023-02-12T18:41:19.208Z,97675.26
2023-02-12T18:43:47.970Z,97676.27
2023-02-12T18:46:19.815Z,97674.40
2023-02-12T18:48:49.149Z,97672.19
2023-02-12T18:51:22.283Z,97674.91
2023-02-12T18:54:01.945Z,97672.88
2023-02-12T18:56:40.987Z,97673.39
2023-02-12T18:59:11.754Z,97676.96
2023-02-12T19:01:40.152Z,97684.11
2023-02-12T19:04:10.936Z,97688.38
2023-02-12T19:06:42.470Z,97693.51
2023-02-12T19:09:12.439Z,97696.91
2023-02-12T19:11:40.430Z,97699.30
2023-02-12T19:14:08.342Z,97699.64
2023-02-12T19:16:36.576Z,97698.44
2023-02-12T19:19:04.738Z,97701.83
2023-02-12T19:21:32.845Z,97705.23
2023-02-12T19:24:03.236Z,97707.27
2023-02-12T19:26:33.156Z,97714.42
2023-02-12T19:29:02.811Z,97721.74
2023-02-12T19:31:34.866Z,97721.05
2023-02-12T19:34:06.878Z,97722.58
2023-02-12T19:36:36.739Z,97720.36
2023-02-12T19:39:06.152Z,97720.34
2023-02-12T19:41:41.170Z,97729.52
2023-02-12T19:44:12.664Z,97728.65
2023-02-12T19:46:41.654Z,97733.07
2023-02-12T19:49:15.810Z,97733.41
2023-02-12T19:51:44.829Z,97736.11
2023-02-12T19:54:14.927Z,97741.19
2023-02-12T19:56:43.934Z,97743.05
2023-02-12T19:59:17.499Z,97746.77
2023-02-12T20:01:46.648Z,97751.33
2023-02-12T20:04:19.410Z,97752.85
2023-02-12T20:06:51.462Z,97759.98
2023-02-12T20:09:21.661Z,97759.61
2023-02-12T20:11:49.764Z,97760.27
2023-02-12T20:14:18.155Z,97757.01
2023-02-12T20:16:48.034Z,97760.36
2023-02-12T20:19:23.364Z,97756.27
2023-02-12T20:21:55.509Z,97759.66
2023-02-12T20:24:30.114Z,97765.08
2023-02-12T20:27:00.243Z,97770.83
2023-02-12T20:29:29.010Z,97775.89
2023-02-12T20:31:57.558Z,97773.31
2023-02-12T20:34:26.528Z,97775.98
2023-02-12T20:36:54.458Z,97770.35
2023-02-12T20:39:23.033Z,97770.84
2023-02-12T20:41:51.506Z,97770.98
2023-02-12T20:44:22.116Z,97769.92
2023-02-12T20:46:55.985Z,97770.59
2023-02-12T20:49:26.146Z,97772.11
2023-02-12T20:51:54.495Z,97772.60
2023-02-12T20:54:22.945Z,97774.12
2023-02-12T20:56:51.225Z,97773.07
2023-02-12T20:59:20.353Z,97768.82
2023-02-12T21:01:48.783Z,97769.64
2023-02-12T21:04:18.577Z,97769.63
2023-02-12T21:06:48.707Z,97773.01
2023-02-12T21:09:17.478Z,97772.48
2023-02-12T21:11:46.054Z,97767.38
2023-02-12T21:14:23.878Z,97767.39
2023-02-12T21:16:55.220Z,97772.35
2023-02-12T21:19:23.859Z,97774.42
2023-02-12T21:21:52.608Z,97774.09
2023-02-12T21:24:26.046Z,97771.70
2023-02-12T21:26:55.467Z,97772.55
2023-02-12T21:29:23.595Z,97774.91
2023-02-12T21:31:51.923Z,97772.67
2023-02-12T21:34:22.584Z,97767.39
2023-02-12T21:36:53.139Z,97769.06
2023-02-12T21:39:27.563Z,97773.99
2023-02-12T21:42:02.600Z,97772.63
2023-02-12T21:44:35.474Z,97774.48
2023-02-12T21:47:04.348Z,97778.91
2023-02-12T21:49:32.594Z,97772.16
2023-02-12T21:52:03.680Z,97770.85
2023-02-12T21:54:33.145Z,97773.10
2023-02-12T21:57:01.863Z,97771.77
2023-02-12T21:59:40.000Z,97773.13
2023-02-12T22:02:09.539Z,97771.62
2023-02-12T22:04:37.551Z,97766.71
2023-02-12T22:07:06.460Z,97767.23
2023-02-12T22:09:35.718Z,97768.25
2023-02-12T22:12:04.012Z,97772.50
2023-02-12T22:14:32.073Z,97772.15
2023-02-12T22:17:01.582Z,97770.61
2023-02-12T22:19:29.553Z,97774.52
2023-02-12T22:21:57.526Z,97777.05
2023-02-12T22:24:25.450Z,97778.04
2023-02-12T22:26:55.183Z,97781.45
2023-02-12T22:29:23.923Z,97784.32
2023-02-12T22:31:52.526Z,97784.11
2023-02-12T22:34:20.686Z,97783.23
2023-02-12T22:36:48.895Z,97778.65
2023-02-12T22:39:17.765Z,97775.38
2023-02-12T22:41:46.035Z,97779.23
2023-02-12T22:44:15.331Z,97779.01
2023-02-12T22:46:44.726Z,97779.79
2023-02-12T22:49:13.070Z,97787.52
2023-02-12T22:51:41.322Z,97792.74
2023-02-12T22:54:14.949Z,97794.07
2023-02-12T22:56:45.902Z,97793.70
2023-02-12T22:59:14.493Z,97791.66
2023-02-12T23:01:43.425Z,97794.37
2023-02-12T23:04:16.955Z,97794.17
2023-02-12T23:06:46.249Z,97787.19
2023-02-12T23:09:16.764Z,97791.22
2023-02-12T23:11:44.875Z,97792.88
2023-02-12T23:14:13.868Z,97798.95
2023-02-12T23:16:41.904Z,97802.11
2023-02-12T23:19:11.110Z,97805.80
2023-02-12T23:21:39.659Z,97808.15
2023-02-12T23:24:07.910Z,97810.50
2023-02-12T23:26:36.761Z,97803.88
2023-02-12T23:29:04.659Z,97801.48
2023-02-12T23:31:32.616Z,97800.27
2023-02-12T23:34:00.665Z,97799.01
2023-02-12T23:36:29.463Z,97800.11
2023-02-12T23:38:59.473Z,97793.40
2023-02-12T23:41:27.364Z,97793.84
2023-02-12T23:43:55.348Z,97789.89
2023-02-12T23:46:23.279Z,97789.48
2023-02-12T23:48:51.239Z,97783.67
2023-02-12T23:51:19.178Z,97780.23
2023-02-12T23:53:47.042Z,97778.84
2023-02-12T23:56:15.372Z,97777.77
2023-02-12T23:58:43.239Z,97774.36
